Pagrindinis puslapis
METAR-TAF:

METAR-TAF

Oro uostai :

Veikas, Teksasas, Jungtinės Amerikos Valstijos

platuma: 31-38-16N, ilguma: 097-04-27W, Aukštis: 143 m

Dabartinis oras

Ataskaita buvo paskelbta 40 minutes, ne 21:55 UTC
Vėjas 18 kt iš Pietų su gūsio iki 26 kt
Temperatūra 32°C
Drėgmė 46%
Slėgis 1008 hPa
Matomumas: 16.1 km
Išsisklaidę debesys ne aukštis 5000 ft

METAR: KCNW 082155Z 17018G26KT 10SM SCT050 32/19 A2976

Laikas: 16:35 (22:35 UTC)


TAF: trūkstamas

Orai ataskaitas ir orų prognozės (METAR, TAF).

turimą stotys yra geltonos ir raudonos taškus žemėlapyje.

Perkelti pele per norėdami pamatyti stoties vardą.

Tada spustelėkite, norėdami matyti oro stebėjimo ir prognozės.

Norėdami pakeisti žemėlapį: spustelėkite ant žalios mygtukų su juodo kryžiaus žemyn,; žalią mygtuką su brūkšneliu, jei norite nutolinti; arba žalių rodyklių gretimoms žemėlapius.


METAR-TAF: